sensor_id;sensor_type;location;lat;lon;timestamp;P1;durP1;ratioP1;P2;durP2;ratioP2
5147;SDS011;2592;48.140;7.614;2023-09-30T00:02:01;10.00;;;3.73;;
5147;SDS011;2592;48.140;7.614;2023-09-30T00:04:27;8.67;;;3.60;;
5147;SDS011;2592;48.140;7.614;2023-09-30T00:06:54;7.80;;;3.83;;
5147;SDS011;2592;48.140;7.614;2023-09-30T00:09:21;9.73;;;4.30;;
5147;SDS011;2592;48.140;7.614;2023-09-30T00:11:47;8.10;;;3.20;;
5147;SDS011;2592;48.140;7.614;2023-09-30T00:14:14;8.57;;;4.03;;
5147;SDS011;2592;48.140;7.614;2023-09-30T00:16:43;8.70;;;3.57;;
5147;SDS011;2592;48.140;7.614;2023-09-30T00:19:10;6.87;;;3.20;;
5147;SDS011;2592;48.140;7.614;2023-09-30T00:21:36;8.90;;;4.20;;
5147;SDS011;2592;48.140;7.614;2023-09-30T00:24:03;6.10;;;3.63;;
5147;SDS011;2592;48.140;7.614;2023-09-30T00:26:29;8.03;;;3.57;;
5147;SDS011;2592;48.140;7.614;2023-09-30T00:28:56;6.47;;;3.53;;
5147;SDS011;2592;48.140;7.614;2023-09-30T00:31:22;6.30;;;3.00;;
5147;SDS011;2592;48.140;7.614;2023-09-30T00:33:50;8.63;;;3.50;;
5147;SDS011;2592;48.140;7.614;2023-09-30T00:36:16;10.40;;;4.40;;
5147;SDS011;2592;48.140;7.614;2023-09-30T00:38:43;14.03;;;4.17;;
5147;SDS011;2592;48.140;7.614;2023-09-30T00:41:09;6.40;;;3.50;;
5147;SDS011;2592;48.140;7.614;2023-09-30T00:43:35;8.33;;;3.37;;
5147;SDS011;2592;48.140;7.614;2023-09-30T00:46:02;7.80;;;3.57;;
5147;SDS011;2592;48.140;7.614;2023-09-30T00:48:31;8.37;;;3.30;;
5147;SDS011;2592;48.140;7.614;2023-09-30T00:50:59;5.63;;;2.60;;
5147;SDS011;2592;48.140;7.614;2023-09-30T00:53:26;8.13;;;4.00;;
5147;SDS011;2592;48.140;7.614;2023-09-30T00:55:53;8.50;;;4.17;;
5147;SDS011;2592;48.140;7.614;2023-09-30T00:58:21;8.17;;;3.80;;
5147;SDS011;2592;48.140;7.614;2023-09-30T01:00:48;5.50;;;3.27;;
5147;SDS011;2592;48.140;7.614;2023-09-30T01:03:15;7.33;;;3.30;;
5147;SDS011;2592;48.140;7.614;2023-09-30T01:05:41;9.33;;;3.50;;
5147;SDS011;2592;48.140;7.614;2023-09-30T01:08:09;7.10;;;3.87;;
5147;SDS011;2592;48.140;7.614;2023-09-30T01:10:35;7.73;;;3.13;;
5147;SDS011;2592;48.140;7.614;2023-09-30T01:13:02;6.77;;;3.23;;
5147;SDS011;2592;48.140;7.614;2023-09-30T01:15:28;8.17;;;3.20;;
5147;SDS011;2592;48.140;7.614;2023-09-30T01:17:55;8.63;;;4.30;;
5147;SDS011;2592;48.140;7.614;2023-09-30T01:20:23;7.93;;;3.80;;
5147;SDS011;2592;48.140;7.614;2023-09-30T01:22:51;7.73;;;3.70;;
5147;SDS011;2592;48.140;7.614;2023-09-30T01:25:17;9.93;;;3.97;;
5147;SDS011;2592;48.140;7.614;2023-09-30T01:27:44;8.27;;;3.50;;
5147;SDS011;2592;48.140;7.614;2023-09-30T01:30:10;6.80;;;3.53;;
5147;SDS011;2592;48.140;7.614;2023-09-30T01:32:38;7.33;;;3.90;;
5147;SDS011;2592;48.140;7.614;2023-09-30T01:35:05;7.30;;;3.80;;
5147;SDS011;2592;48.140;7.614;2023-09-30T01:37:32;9.23;;;3.80;;
5147;SDS011;2592;48.140;7.614;2023-09-30T01:39:59;7.37;;;3.90;;
5147;SDS011;2592;48.140;7.614;2023-09-30T01:42:26;8.20;;;3.37;;
5147;SDS011;2592;48.140;7.614;2023-09-30T01:44:52;8.00;;;3.50;;
5147;SDS011;2592;48.140;7.614;2023-09-30T01:47:19;10.97;;;3.47;;
5147;SDS011;2592;48.140;7.614;2023-09-30T01:49:45;7.67;;;3.40;;
5147;SDS011;2592;48.140;7.614;2023-09-30T01:52:12;8.70;;;4.27;;
5147;SDS011;2592;48.140;7.614;2023-09-30T01:54:38;6.80;;;3.80;;
5147;SDS011;2592;48.140;7.614;2023-09-30T01:57:06;7.40;;;3.73;;
5147;SDS011;2592;48.140;7.614;2023-09-30T01:59:32;7.37;;;3.03;;
5147;SDS011;2592;48.140;7.614;2023-09-30T02:01:59;6.60;;;3.27;;
5147;SDS011;2592;48.140;7.614;2023-09-30T02:04:27;11.43;;;4.40;;
5147;SDS011;2592;48.140;7.614;2023-09-30T02:06:54;7.00;;;3.63;;
5147;SDS011;2592;48.140;7.614;2023-09-30T02:09:21;10.10;;;3.70;;
5147;SDS011;2592;48.140;7.614;2023-09-30T02:11:47;7.90;;;3.70;;
5147;SDS011;2592;48.140;7.614;2023-09-30T02:14:15;6.87;;;3.20;;
5147;SDS011;2592;48.140;7.614;2023-09-30T02:16:41;8.27;;;4.00;;
5147;SDS011;2592;48.140;7.614;2023-09-30T02:19:08;7.10;;;3.10;;
5147;SDS011;2592;48.140;7.614;2023-09-30T02:21:35;10.37;;;4.70;;
5147;SDS011;2592;48.140;7.614;2023-09-30T02:24:02;9.77;;;4.50;;
5147;SDS011;2592;48.140;7.614;2023-09-30T02:26:31;4.20;;;2.60;;
5147;SDS011;2592;48.140;7.614;2023-09-30T02:28:58;5.47;;;3.03;;
5147;SDS011;2592;48.140;7.614;2023-09-30T02:31:26;9.13;;;4.27;;
5147;SDS011;2592;48.140;7.614;2023-09-30T02:33:52;10.60;;;3.73;;
5147;SDS011;2592;48.140;7.614;2023-09-30T02:36:18;8.10;;;3.73;;
5147;SDS011;2592;48.140;7.614;2023-09-30T02:38:45;8.13;;;3.20;;
5147;SDS011;2592;48.140;7.614;2023-09-30T02:41:11;9.17;;;3.90;;
5147;SDS011;2592;48.140;7.614;2023-09-30T02:43:38;14.40;;;4.20;;
5147;SDS011;2592;48.140;7.614;2023-09-30T02:46:05;12.00;;;4.97;;
5147;SDS011;2592;48.140;7.614;2023-09-30T02:48:34;9.20;;;4.20;;
5147;SDS011;2592;48.140;7.614;2023-09-30T02:51:01;7.77;;;4.00;;
5147;SDS011;2592;48.140;7.614;2023-09-30T02:53:27;7.03;;;3.63;;
5147;SDS011;2592;48.140;7.614;2023-09-30T02:55:54;6.40;;;3.00;;
5147;SDS011;2592;48.140;7.614;2023-09-30T02:58:21;5.70;;;2.90;;
5147;SDS011;2592;48.140;7.614;2023-09-30T03:00:48;6.27;;;3.30;;
5147;SDS011;2592;48.140;7.614;2023-09-30T03:03:15;9.27;;;4.67;;
5147;SDS011;2592;48.140;7.614;2023-09-30T03:05:43;12.30;;;5.70;;
5147;SDS011;2592;48.140;7.614;2023-09-30T03:08:10;11.90;;;5.30;;
5147;SDS011;2592;48.140;7.614;2023-09-30T03:10:37;11.27;;;5.57;;
5147;SDS011;2592;48.140;7.614;2023-09-30T03:13:05;10.13;;;4.53;;
5147;SDS011;2592;48.140;7.614;2023-09-30T03:15:34;9.63;;;4.20;;
5147;SDS011;2592;48.140;7.614;2023-09-30T03:18:00;10.20;;;4.30;;
5147;SDS011;2592;48.140;7.614;2023-09-30T03:20:26;10.60;;;4.70;;
5147;SDS011;2592;48.140;7.614;2023-09-30T03:22:54;17.67;;;5.53;;
5147;SDS011;2592;48.140;7.614;2023-09-30T03:25:21;9.87;;;4.70;;
5147;SDS011;2592;48.140;7.614;2023-09-30T03:27:47;12.33;;;5.13;;
5147;SDS011;2592;48.140;7.614;2023-09-30T03:30:14;11.30;;;5.33;;
5147;SDS011;2592;48.140;7.614;2023-09-30T03:32:41;11.27;;;5.60;;
5147;SDS011;2592;48.140;7.614;2023-09-30T03:35:08;11.63;;;6.17;;
5147;SDS011;2592;48.140;7.614;2023-09-30T03:37:35;9.37;;;5.23;;
5147;SDS011;2592;48.140;7.614;2023-09-30T03:40:03;10.60;;;4.80;;
5147;SDS011;2592;48.140;7.614;2023-09-30T03:42:38;11.30;;;5.27;;
5147;SDS011;2592;48.140;7.614;2023-09-30T03:45:05;11.27;;;5.60;;
5147;SDS011;2592;48.140;7.614;2023-09-30T03:47:32;9.47;;;5.20;;
5147;SDS011;2592;48.140;7.614;2023-09-30T03:49:59;12.90;;;5.83;;
5147;SDS011;2592;48.140;7.614;2023-09-30T03:52:25;14.07;;;5.77;;
5147;SDS011;2592;48.140;7.614;2023-09-30T03:54:53;11.27;;;5.43;;
5147;SDS011;2592;48.140;7.614;2023-09-30T03:57:21;17.87;;;5.47;;
5147;SDS011;2592;48.140;7.614;2023-09-30T03:59:47;11.57;;;5.60;;
5147;SDS011;2592;48.140;7.614;2023-09-30T04:02:14;10.40;;;5.10;;
5147;SDS011;2592;48.140;7.614;2023-09-30T04:04:40;12.43;;;6.20;;
5147;SDS011;2592;48.140;7.614;2023-09-30T04:07:07;9.97;;;4.53;;
5147;SDS011;2592;48.140;7.614;2023-09-30T04:09:35;11.00;;;5.20;;
5147;SDS011;2592;48.140;7.614;2023-09-30T04:12:01;11.17;;;5.80;;
5147;SDS011;2592;48.140;7.614;2023-09-30T04:14:29;18.63;;;5.90;;
5147;SDS011;2592;48.140;7.614;2023-09-30T04:16:55;11.50;;;5.10;;
5147;SDS011;2592;48.140;7.614;2023-09-30T04:19:23;10.93;;;4.80;;
5147;SDS011;2592;48.140;7.614;2023-09-30T04:21:49;14.80;;;5.27;;
5147;SDS011;2592;48.140;7.614;2023-09-30T04:24:16;12.87;;;5.97;;
5147;SDS011;2592;48.140;7.614;2023-09-30T04:26:44;10.63;;;5.30;;
5147;SDS011;2592;48.140;7.614;2023-09-30T04:29:11;12.60;;;5.17;;
5147;SDS011;2592;48.140;7.614;2023-09-30T04:31:39;11.20;;;5.43;;
5147;SDS011;2592;48.140;7.614;2023-09-30T04:34:06;11.17;;;5.50;;
5147;SDS011;2592;48.140;7.614;2023-09-30T04:36:33;14.63;;;7.70;;
5147;SDS011;2592;48.140;7.614;2023-09-30T04:39:01;10.83;;;5.70;;
5147;SDS011;2592;48.140;7.614;2023-09-30T04:41:28;9.43;;;5.00;;
5147;SDS011;2592;48.140;7.614;2023-09-30T04:43:55;9.93;;;4.80;;
5147;SDS011;2592;48.140;7.614;2023-09-30T04:46:21;11.13;;;5.20;;
5147;SDS011;2592;48.140;7.614;2023-09-30T04:48:50;12.67;;;5.30;;
5147;SDS011;2592;48.140;7.614;2023-09-30T04:51:17;11.93;;;4.73;;
5147;SDS011;2592;48.140;7.614;2023-09-30T04:53:43;12.00;;;5.47;;
5147;SDS011;2592;48.140;7.614;2023-09-30T04:56:11;15.93;;;6.60;;
5147;SDS011;2592;48.140;7.614;2023-09-30T04:58:37;10.13;;;5.70;;
5147;SDS011;2592;48.140;7.614;2023-09-30T05:01:04;13.53;;;4.73;;
5147;SDS011;2592;48.140;7.614;2023-09-30T05:03:33;10.20;;;4.53;;
5147;SDS011;2592;48.140;7.614;2023-09-30T05:06:01;11.20;;;5.23;;
5147;SDS011;2592;48.140;7.614;2023-09-30T05:08:28;12.10;;;4.73;;
5147;SDS011;2592;48.140;7.614;2023-09-30T05:10:56;10.03;;;5.90;;
5147;SDS011;2592;48.140;7.614;2023-09-30T05:13:22;10.47;;;6.20;;
5147;SDS011;2592;48.140;7.614;2023-09-30T05:15:49;12.43;;;4.90;;
5147;SDS011;2592;48.140;7.614;2023-09-30T05:18:16;11.80;;;4.70;;
5147;SDS011;2592;48.140;7.614;2023-09-30T05:20:42;10.10;;;4.47;;
5147;SDS011;2592;48.140;7.614;2023-09-30T05:23:10;15.43;;;5.53;;
5147;SDS011;2592;48.140;7.614;2023-09-30T05:25:38;9.83;;;4.87;;
5147;SDS011;2592;48.140;7.614;2023-09-30T05:28:05;8.50;;;4.23;;
5147;SDS011;2592;48.140;7.614;2023-09-30T05:30:32;11.37;;;5.40;;
5147;SDS011;2592;48.140;7.614;2023-09-30T05:33:00;18.30;;;5.13;;
5147;SDS011;2592;48.140;7.614;2023-09-30T05:35:26;9.83;;;4.80;;
5147;SDS011;2592;48.140;7.614;2023-09-30T05:37:53;11.50;;;4.60;;
5147;SDS011;2592;48.140;7.614;2023-09-30T05:40:21;18.07;;;4.80;;
5147;SDS011;2592;48.140;7.614;2023-09-30T05:42:52;10.73;;;4.50;;
5147;SDS011;2592;48.140;7.614;2023-09-30T05:45:18;8.17;;;4.40;;
5147;SDS011;2592;48.140;7.614;2023-09-30T05:47:45;14.30;;;4.23;;
5147;SDS011;2592;48.140;7.614;2023-09-30T05:50:11;8.83;;;4.60;;
5147;SDS011;2592;48.140;7.614;2023-09-30T05:52:41;11.70;;;5.10;;
5147;SDS011;2592;48.140;7.614;2023-09-30T05:55:07;10.10;;;4.30;;
5147;SDS011;2592;48.140;7.614;2023-09-30T05:57:35;11.70;;;5.10;;
5147;SDS011;2592;48.140;7.614;2023-09-30T06:00:02;8.67;;;4.50;;
5147;SDS011;2592;48.140;7.614;2023-09-30T06:02:31;7.67;;;3.73;;
5147;SDS011;2592;48.140;7.614;2023-09-30T06:04:58;13.13;;;4.83;;
5147;SDS011;2592;48.140;7.614;2023-09-30T06:07:26;11.63;;;4.60;;
5147;SDS011;2592;48.140;7.614;2023-09-30T06:09:52;17.30;;;5.30;;
5147;SDS011;2592;48.140;7.614;2023-09-30T06:12:19;9.30;;;4.60;;
5147;SDS011;2592;48.140;7.614;2023-09-30T06:14:46;12.80;;;5.27;;
5147;SDS011;2592;48.140;7.614;2023-09-30T06:17:13;9.07;;;5.00;;
5147;SDS011;2592;48.140;7.614;2023-09-30T06:19:39;18.67;;;5.53;;
5147;SDS011;2592;48.140;7.614;2023-09-30T06:22:06;11.40;;;4.70;;
5147;SDS011;2592;48.140;7.614;2023-09-30T06:24:32;11.07;;;4.77;;
5147;SDS011;2592;48.140;7.614;2023-09-30T06:26:59;10.37;;;4.10;;
5147;SDS011;2592;48.140;7.614;2023-09-30T06:29:25;10.13;;;4.87;;
5147;SDS011;2592;48.140;7.614;2023-09-30T06:31:53;8.97;;;4.27;;
5147;SDS011;2592;48.140;7.614;2023-09-30T06:34:20;11.23;;;4.93;;
5147;SDS011;2592;48.140;7.614;2023-09-30T06:36:46;13.53;;;4.50;;
5147;SDS011;2592;48.140;7.614;2023-09-30T06:39:13;10.10;;;4.53;;
5147;SDS011;2592;48.140;7.614;2023-09-30T06:41:39;12.17;;;5.47;;
5147;SDS011;2592;48.140;7.614;2023-09-30T06:44:05;9.50;;;5.37;;
5147;SDS011;2592;48.140;7.614;2023-09-30T06:46:32;10.40;;;5.00;;
5147;SDS011;2592;48.140;7.614;2023-09-30T06:49:00;11.30;;;3.80;;
5147;SDS011;2592;48.140;7.614;2023-09-30T06:51:27;9.53;;;4.33;;
5147;SDS011;2592;48.140;7.614;2023-09-30T06:53:53;13.80;;;5.00;;
5147;SDS011;2592;48.140;7.614;2023-09-30T06:56:19;16.00;;;4.30;;
5147;SDS011;2592;48.140;7.614;2023-09-30T06:58:46;9.33;;;4.47;;
5147;SDS011;2592;48.140;7.614;2023-09-30T07:01:14;10.27;;;4.80;;
5147;SDS011;2592;48.140;7.614;2023-09-30T07:03:41;14.53;;;4.70;;
5147;SDS011;2592;48.140;7.614;2023-09-30T07:06:08;10.00;;;4.87;;
5147;SDS011;2592;48.140;7.614;2023-09-30T07:08:35;10.53;;;4.50;;
5147;SDS011;2592;48.140;7.614;2023-09-30T07:11:01;11.47;;;4.20;;
5147;SDS011;2592;48.140;7.614;2023-09-30T07:13:30;27.07;;;17.80;;
5147;SDS011;2592;48.140;7.614;2023-09-30T07:15:56;21.03;;;9.57;;
5147;SDS011;2592;48.140;7.614;2023-09-30T07:18:23;21.40;;;15.53;;
5147;SDS011;2592;48.140;7.614;2023-09-30T07:20:50;11.00;;;6.70;;
5147;SDS011;2592;48.140;7.614;2023-09-30T07:23:18;11.17;;;4.97;;
5147;SDS011;2592;48.140;7.614;2023-09-30T07:25:45;13.30;;;5.50;;
5147;SDS011;2592;48.140;7.614;2023-09-30T07:28:12;10.80;;;4.23;;
5147;SDS011;2592;48.140;7.614;2023-09-30T07:30:38;10.60;;;4.40;;
5147;SDS011;2592;48.140;7.614;2023-09-30T07:33:05;10.40;;;4.27;;
5147;SDS011;2592;48.140;7.614;2023-09-30T07:35:32;9.10;;;4.40;;
5147;SDS011;2592;48.140;7.614;2023-09-30T07:37:58;10.60;;;4.80;;
5147;SDS011;2592;48.140;7.614;2023-09-30T07:40:26;10.90;;;5.53;;
5147;SDS011;2592;48.140;7.614;2023-09-30T07:42:53;9.40;;;4.30;;
5147;SDS011;2592;48.140;7.614;2023-09-30T07:45:20;15.23;;;5.40;;
5147;SDS011;2592;48.140;7.614;2023-09-30T07:47:46;9.93;;;4.73;;
5147;SDS011;2592;48.140;7.614;2023-09-30T07:50:14;11.40;;;5.40;;
5147;SDS011;2592;48.140;7.614;2023-09-30T07:52:40;6.47;;;4.10;;
5147;SDS011;2592;48.140;7.614;2023-09-30T07:55:08;10.90;;;4.50;;
5147;SDS011;2592;48.140;7.614;2023-09-30T07:57:36;10.40;;;4.37;;
5147;SDS011;2592;48.140;7.614;2023-09-30T08:00:03;13.13;;;4.80;;
5147;SDS011;2592;48.140;7.614;2023-09-30T08:02:34;9.93;;;3.77;;
5147;SDS011;2592;48.140;7.614;2023-09-30T08:05:01;8.70;;;4.07;;
5147;SDS011;2592;48.140;7.614;2023-09-30T08:07:28;8.50;;;4.93;;
5147;SDS011;2592;48.140;7.614;2023-09-30T08:09:54;13.33;;;4.30;;
5147;SDS011;2592;48.140;7.614;2023-09-30T08:12:21;6.03;;;3.63;;
5147;SDS011;2592;48.140;7.614;2023-09-30T08:14:48;9.67;;;4.30;;
5147;SDS011;2592;48.140;7.614;2023-09-30T08:17:16;8.70;;;4.30;;
5147;SDS011;2592;48.140;7.614;2023-09-30T08:19:43;7.00;;;4.20;;
5147;SDS011;2592;48.140;7.614;2023-09-30T08:22:11;12.63;;;5.60;;
5147;SDS011;2592;48.140;7.614;2023-09-30T08:24:38;10.47;;;4.37;;
5147;SDS011;2592;48.140;7.614;2023-09-30T08:27:04;9.17;;;4.90;;
5147;SDS011;2592;48.140;7.614;2023-09-30T08:29:33;14.20;;;5.00;;
5147;SDS011;2592;48.140;7.614;2023-09-30T08:32:01;8.20;;;4.30;;
5147;SDS011;2592;48.140;7.614;2023-09-30T08:34:27;12.80;;;4.87;;
5147;SDS011;2592;48.140;7.614;2023-09-30T08:36:54;8.77;;;4.40;;
5147;SDS011;2592;48.140;7.614;2023-09-30T08:39:20;11.43;;;4.70;;
5147;SDS011;2592;48.140;7.614;2023-09-30T08:41:47;14.83;;;4.23;;
5147;SDS011;2592;48.140;7.614;2023-09-30T08:44:13;7.30;;;4.00;;
5147;SDS011;2592;48.140;7.614;2023-09-30T08:46:39;10.10;;;4.17;;
5147;SDS011;2592;48.140;7.614;2023-09-30T08:49:08;10.43;;;4.43;;
5147;SDS011;2592;48.140;7.614;2023-09-30T08:51:35;7.63;;;3.87;;
5147;SDS011;2592;48.140;7.614;2023-09-30T08:54:01;9.90;;;4.80;;
5147;SDS011;2592;48.140;7.614;2023-09-30T08:56:29;9.40;;;3.60;;
5147;SDS011;2592;48.140;7.614;2023-09-30T08:58:58;9.80;;;4.07;;
5147;SDS011;2592;48.140;7.614;2023-09-30T09:01:25;14.83;;;4.57;;
5147;SDS011;2592;48.140;7.614;2023-09-30T09:03:52;10.30;;;3.67;;
5147;SDS011;2592;48.140;7.614;2023-09-30T09:06:20;8.90;;;4.17;;
5147;SDS011;2592;48.140;7.614;2023-09-30T09:08:47;6.03;;;3.57;;
5147;SDS011;2592;48.140;7.614;2023-09-30T09:11:14;7.53;;;3.03;;
5147;SDS011;2592;48.140;7.614;2023-09-30T09:13:48;7.47;;;3.47;;
5147;SDS011;2592;48.140;7.614;2023-09-30T09:16:16;7.70;;;3.47;;
5147;SDS011;2592;48.140;7.614;2023-09-30T09:18:43;7.43;;;3.60;;
5147;SDS011;2592;48.140;7.614;2023-09-30T09:21:13;7.50;;;3.40;;
5147;SDS011;2592;48.140;7.614;2023-09-30T09:23:41;7.50;;;3.90;;
5147;SDS011;2592;48.140;7.614;2023-09-30T09:26:08;8.60;;;4.00;;
5147;SDS011;2592;48.140;7.614;2023-09-30T09:28:35;9.67;;;3.83;;
5147;SDS011;2592;48.140;7.614;2023-09-30T09:31:06;8.17;;;3.47;;
5147;SDS011;2592;48.140;7.614;2023-09-30T09:33:44;8.40;;;4.33;;
5147;SDS011;2592;48.140;7.614;2023-09-30T09:36:11;7.50;;;3.40;;
5147;SDS011;2592;48.140;7.614;2023-09-30T09:38:44;8.33;;;4.30;;
5147;SDS011;2592;48.140;7.614;2023-09-30T09:41:11;9.40;;;4.07;;
5147;SDS011;2592;48.140;7.614;2023-09-30T09:43:37;10.17;;;4.27;;
5147;SDS011;2592;48.140;7.614;2023-09-30T09:46:04;8.97;;;4.03;;
5147;SDS011;2592;48.140;7.614;2023-09-30T09:48:33;8.13;;;3.60;;
5147;SDS011;2592;48.140;7.614;2023-09-30T09:51:00;6.90;;;3.10;;
5147;SDS011;2592;48.140;7.614;2023-09-30T09:53:27;8.83;;;3.70;;
5147;SDS011;2592;48.140;7.614;2023-09-30T09:55:57;10.67;;;4.10;;
5147;SDS011;2592;48.140;7.614;2023-09-30T09:58:25;15.10;;;3.77;;
5147;SDS011;2592;48.140;7.614;2023-09-30T10:00:56;10.97;;;3.90;;
5147;SDS011;2592;48.140;7.614;2023-09-30T10:03:23;10.03;;;4.37;;
5147;SDS011;2592;48.140;7.614;2023-09-30T10:05:50;13.40;;;4.50;;
5147;SDS011;2592;48.140;7.614;2023-09-30T10:08:16;11.17;;;4.80;;
5147;SDS011;2592;48.140;7.614;2023-09-30T10:10:44;6.83;;;4.00;;
5147;SDS011;2592;48.140;7.614;2023-09-30T10:15:53;6.87;;;3.57;;
5147;SDS011;2592;48.140;7.614;2023-09-30T10:18:20;8.33;;;3.47;;
5147;SDS011;2592;48.140;7.614;2023-09-30T10:20:46;6.60;;;3.13;;
5147;SDS011;2592;48.140;7.614;2023-09-30T10:23:25;12.80;;;4.70;;
5147;SDS011;2592;48.140;7.614;2023-09-30T10:28:40;10.43;;;3.50;;
5147;SDS011;2592;48.140;7.614;2023-09-30T10:31:12;7.10;;;3.40;;
5147;SDS011;2592;48.140;7.614;2023-09-30T10:36:26;11.10;;;4.00;;
5147;SDS011;2592;48.140;7.614;2023-09-30T10:38:53;12.63;;;4.10;;
5147;SDS011;2592;48.140;7.614;2023-09-30T10:46:43;8.90;;;4.30;;
5147;SDS011;2592;48.140;7.614;2023-09-30T10:49:16;11.00;;;4.50;;
5147;SDS011;2592;48.140;7.614;2023-09-30T10:51:43;8.40;;;3.50;;
5147;SDS011;2592;48.140;7.614;2023-09-30T10:54:11;9.40;;;4.23;;
5147;SDS011;2592;48.140;7.614;2023-09-30T10:56:38;9.27;;;4.07;;
5147;SDS011;2592;48.140;7.614;2023-09-30T10:59:05;13.33;;;4.40;;
5147;SDS011;2592;48.140;7.614;2023-09-30T11:01:32;8.63;;;3.83;;
5147;SDS011;2592;48.140;7.614;2023-09-30T11:04:00;7.43;;;3.60;;
5147;SDS011;2592;48.140;7.614;2023-09-30T11:06:29;10.10;;;5.00;;
5147;SDS011;2592;48.140;7.614;2023-09-30T11:08:57;15.13;;;5.53;;
5147;SDS011;2592;48.140;7.614;2023-09-30T11:11:32;13.93;;;5.23;;
5147;SDS011;2592;48.140;7.614;2023-09-30T11:13:58;8.27;;;4.20;;
5147;SDS011;2592;48.140;7.614;2023-09-30T11:16:24;12.50;;;5.50;;
5147;SDS011;2592;48.140;7.614;2023-09-30T11:18:53;12.03;;;6.07;;
5147;SDS011;2592;48.140;7.614;2023-09-30T11:21:22;13.67;;;5.83;;
5147;SDS011;2592;48.140;7.614;2023-09-30T11:23:48;15.17;;;7.77;;
5147;SDS011;2592;48.140;7.614;2023-09-30T11:26:16;16.03;;;7.57;;
5147;SDS011;2592;48.140;7.614;2023-09-30T11:29:04;14.50;;;7.83;;
5147;SDS011;2592;48.140;7.614;2023-09-30T11:31:30;15.60;;;7.60;;
5147;SDS011;2592;48.140;7.614;2023-09-30T11:33:58;14.67;;;7.73;;
5147;SDS011;2592;48.140;7.614;2023-09-30T11:36:30;15.43;;;7.87;;
5147;SDS011;2592;48.140;7.614;2023-09-30T11:38:56;16.97;;;8.13;;
5147;SDS011;2592;48.140;7.614;2023-09-30T11:41:31;16.47;;;7.90;;
5147;SDS011;2592;48.140;7.614;2023-09-30T11:43:59;15.27;;;8.37;;
5147;SDS011;2592;48.140;7.614;2023-09-30T11:46:26;18.30;;;9.97;;
5147;SDS011;2592;48.140;7.614;2023-09-30T11:48:56;18.60;;;9.40;;
5147;SDS011;2592;48.140;7.614;2023-09-30T11:51:23;16.90;;;8.60;;
5147;SDS011;2592;48.140;7.614;2023-09-30T11:53:51;20.17;;;10.73;;
5147;SDS011;2592;48.140;7.614;2023-09-30T11:56:18;19.83;;;9.50;;
5147;SDS011;2592;48.140;7.614;2023-09-30T11:58:45;21.43;;;11.27;;
5147;SDS011;2592;48.140;7.614;2023-09-30T12:01:13;18.63;;;9.20;;
5147;SDS011;2592;48.140;7.614;2023-09-30T12:03:41;19.40;;;9.90;;
5147;SDS011;2592;48.140;7.614;2023-09-30T12:06:07;19.13;;;9.80;;
5147;SDS011;2592;48.140;7.614;2023-09-30T12:08:35;20.80;;;9.80;;
5147;SDS011;2592;48.140;7.614;2023-09-30T12:11:04;18.97;;;10.17;;
5147;SDS011;2592;48.140;7.614;2023-09-30T12:13:31;20.77;;;9.37;;
5147;SDS011;2592;48.140;7.614;2023-09-30T12:15:57;22.27;;;11.03;;
5147;SDS011;2592;48.140;7.614;2023-09-30T12:18:24;25.70;;;11.67;;
5147;SDS011;2592;48.140;7.614;2023-09-30T12:20:51;20.07;;;9.90;;
5147;SDS011;2592;48.140;7.614;2023-09-30T12:23:18;28.40;;;12.63;;
5147;SDS011;2592;48.140;7.614;2023-09-30T12:25:45;25.23;;;12.07;;
5147;SDS011;2592;48.140;7.614;2023-09-30T12:28:12;24.07;;;10.77;;
5147;SDS011;2592;48.140;7.614;2023-09-30T12:30:40;21.00;;;10.93;;
5147;SDS011;2592;48.140;7.614;2023-09-30T12:33:07;18.60;;;9.60;;
5147;SDS011;2592;48.140;7.614;2023-09-30T12:35:33;20.70;;;10.73;;
5147;SDS011;2592;48.140;7.614;2023-09-30T12:38:00;18.00;;;9.97;;
5147;SDS011;2592;48.140;7.614;2023-09-30T12:40:27;20.80;;;11.00;;
5147;SDS011;2592;48.140;7.614;2023-09-30T12:42:54;18.37;;;9.87;;
5147;SDS011;2592;48.140;7.614;2023-09-30T12:45:22;19.17;;;10.30;;
5147;SDS011;2592;48.140;7.614;2023-09-30T12:47:48;26.30;;;11.13;;
5147;SDS011;2592;48.140;7.614;2023-09-30T12:50:17;17.73;;;9.60;;
5147;SDS011;2592;48.140;7.614;2023-09-30T12:52:43;16.80;;;8.53;;
5147;SDS011;2592;48.140;7.614;2023-09-30T12:55:10;15.43;;;8.00;;
5147;SDS011;2592;48.140;7.614;2023-09-30T12:57:36;14.90;;;8.47;;
5147;SDS011;2592;48.140;7.614;2023-09-30T13:00:03;17.23;;;7.70;;
5147;SDS011;2592;48.140;7.614;2023-09-30T13:02:35;14.97;;;8.40;;
5147;SDS011;2592;48.140;7.614;2023-09-30T13:05:03;14.57;;;7.53;;
5147;SDS011;2592;48.140;7.614;2023-09-30T13:07:31;35.10;;;23.60;;
5147;SDS011;2592;48.140;7.614;2023-09-30T13:09:58;20.93;;;11.83;;
5147;SDS011;2592;48.140;7.614;2023-09-30T13:12:25;18.97;;;8.47;;
5147;SDS011;2592;48.140;7.614;2023-09-30T13:14:52;17.60;;;8.97;;
5147;SDS011;2592;48.140;7.614;2023-09-30T13:17:21;16.33;;;8.70;;
5147;SDS011;2592;48.140;7.614;2023-09-30T13:19:49;13.20;;;7.57;;
5147;SDS011;2592;48.140;7.614;2023-09-30T13:22:16;16.93;;;7.83;;
5147;SDS011;2592;48.140;7.614;2023-09-30T13:24:42;14.00;;;7.13;;
5147;SDS011;2592;48.140;7.614;2023-09-30T13:27:09;15.80;;;8.10;;
5147;SDS011;2592;48.140;7.614;2023-09-30T13:29:35;13.53;;;7.20;;
5147;SDS011;2592;48.140;7.614;2023-09-30T13:32:01;15.90;;;7.87;;
5147;SDS011;2592;48.140;7.614;2023-09-30T13:34:29;16.67;;;7.50;;
5147;SDS011;2592;48.140;7.614;2023-09-30T13:36:57;14.27;;;7.13;;
5147;SDS011;2592;48.140;7.614;2023-09-30T13:39:23;14.53;;;6.70;;
5147;SDS011;2592;48.140;7.614;2023-09-30T13:41:50;14.87;;;7.70;;
5147;SDS011;2592;48.140;7.614;2023-09-30T13:44:17;14.17;;;7.57;;
5147;SDS011;2592;48.140;7.614;2023-09-30T13:46:43;13.30;;;6.80;;
5147;SDS011;2592;48.140;7.614;2023-09-30T13:49:10;11.90;;;6.70;;
5147;SDS011;2592;48.140;7.614;2023-09-30T13:51:36;13.40;;;6.77;;
5147;SDS011;2592;48.140;7.614;2023-09-30T13:54:05;14.80;;;6.80;;
5147;SDS011;2592;48.140;7.614;2023-09-30T13:56:33;11.60;;;6.63;;
5147;SDS011;2592;48.140;7.614;2023-09-30T13:58:59;13.10;;;6.80;;
5147;SDS011;2592;48.140;7.614;2023-09-30T14:01:26;13.73;;;7.10;;
5147;SDS011;2592;48.140;7.614;2023-09-30T14:03:52;15.50;;;7.40;;
5147;SDS011;2592;48.140;7.614;2023-09-30T14:06:21;12.20;;;7.10;;
5147;SDS011;2592;48.140;7.614;2023-09-30T14:08:47;12.00;;;6.93;;
5147;SDS011;2592;48.140;7.614;2023-09-30T14:11:15;14.53;;;7.33;;
5147;SDS011;2592;48.140;7.614;2023-09-30T14:13:41;12.67;;;7.20;;
5147;SDS011;2592;48.140;7.614;2023-09-30T14:16:08;14.27;;;8.20;;
5147;SDS011;2592;48.140;7.614;2023-09-30T14:18:34;18.93;;;9.07;;
5147;SDS011;2592;48.140;7.614;2023-09-30T14:21:01;15.77;;;7.80;;
5147;SDS011;2592;48.140;7.614;2023-09-30T14:23:27;14.10;;;8.13;;
5147;SDS011;2592;48.140;7.614;2023-09-30T14:25:55;15.03;;;7.80;;
5147;SDS011;2592;48.140;7.614;2023-09-30T14:28:23;12.77;;;6.70;;
5147;SDS011;2592;48.140;7.614;2023-09-30T14:30:49;13.87;;;7.27;;
5147;SDS011;2592;48.140;7.614;2023-09-30T14:33:16;19.70;;;7.07;;
5147;SDS011;2592;48.140;7.614;2023-09-30T14:35:44;14.70;;;7.37;;
5147;SDS011;2592;48.140;7.614;2023-09-30T14:38:11;20.10;;;7.07;;
5147;SDS011;2592;48.140;7.614;2023-09-30T14:40:37;12.70;;;6.57;;
5147;SDS011;2592;48.140;7.614;2023-09-30T14:43:04;17.70;;;8.30;;
5147;SDS011;2592;48.140;7.614;2023-09-30T14:45:36;14.20;;;6.67;;
5147;SDS011;2592;48.140;7.614;2023-09-30T14:48:03;12.87;;;7.63;;
5147;SDS011;2592;48.140;7.614;2023-09-30T14:50:29;16.10;;;7.80;;
5147;SDS011;2592;48.140;7.614;2023-09-30T14:52:56;19.60;;;8.07;;
5147;SDS011;2592;48.140;7.614;2023-09-30T14:55:22;18.37;;;7.83;;
5147;SDS011;2592;48.140;7.614;2023-09-30T14:57:48;14.57;;;7.83;;
5147;SDS011;2592;48.140;7.614;2023-09-30T15:00:15;13.70;;;7.10;;
5147;SDS011;2592;48.140;7.614;2023-09-30T15:02:43;11.97;;;7.00;;
5147;SDS011;2592;48.140;7.614;2023-09-30T15:05:10;15.83;;;7.30;;
5147;SDS011;2592;48.140;7.614;2023-09-30T15:07:36;13.03;;;7.43;;
5147;SDS011;2592;48.140;7.614;2023-09-30T15:10:03;13.60;;;8.10;;
5147;SDS011;2592;48.140;7.614;2023-09-30T15:12:30;14.20;;;7.27;;
5147;SDS011;2592;48.140;7.614;2023-09-30T15:14:56;15.67;;;7.63;;
5147;SDS011;2592;48.140;7.614;2023-09-30T15:17:23;18.07;;;7.00;;
5147;SDS011;2592;48.140;7.614;2023-09-30T15:19:50;13.77;;;7.70;;